Latest Weather Observations for Cape Bruny AWS

IDT60901

Issued at 6:01 pm EST Monday 25 September 2017 (issued every 10 minutes, with the page automatically refreshed every 10 minutes)

About weather observations | Map of Hobart area stations | Latest observations for Hobart area | Other Formats
Station Details ID: 094198 Name: CAPE BRUNY (CAPE BRUNY) Lat: -43.49 Lon: 147.14 Height: 59.7 m
Data from the previous 72 hours. | See also: Recent months at Cape Bruny AWS
Date/Time
EST
Temp
°C
App
Temp
°C
Dew
Point
°C
Rel
Hum
%
Delta-T
°C
Wind Press
QNH
hPa
Press
MSL
hPa
Rain since
9am
mm
Dir  Spd
km/h
Gust
km/h
Spd
kts
Gust
kts
25/06:00pm 6.6 0.7 3.9 83 1.2 W 24 35 13 19 1005.4 1005.4 4.8
25/05:42pm 6.4 -1.6 3.6 82 1.2 WSW 35 50 19 27 1005.3 1005.3 4.8
25/05:40pm 6.6 -1.9 3.4 80 1.4 WSW 37 56 20 30 1005.3 1005.3 4.8
25/05:30pm 6.7 -2.5 3.7 81 1.3 WSW 41 56 22 30 1004.9 1004.9 4.8
25/05:00pm 6.9 -1.0 4.4 84 1.1 W 35 50 19 27 1004.4 1004.4 4.6
25/04:32pm 8.3 0.0 4.1 75 1.8 WSW 37 56 20 30 1004.1 1004.1 4.6
25/04:30pm 8.6 -0.1 4.2 74 1.9 WSW 39 56 21 30 1004.1 1004.1 4.6
25/04:00pm 7.8 -0.7 3.1 72 2.0 WSW 37 52 20 28 1003.5 1003.5 4.6
25/03:30pm 8.6 -1.2 3.2 69 2.3 WSW 44 57 24 31 1003.1 1003.1 4.6
25/03:00pm 8.3 -1.3 4.5 77 1.7 WSW 44 63 24 34 1002.8 1002.8 4.6
25/02:44pm 7.6 -2.5 3.8 77 1.6 WSW 46 65 25 35 1002.4 1002.4 4.6
25/02:30pm 7.9 -1.4 4.8 81 1.4 WSW 43 59 23 32 1002.2 1002.2 4.6
25/02:01pm 7.1 -2.4 3.9 80 1.4 WSW 43 61 23 33 1001.9 1001.9 4.2
25/02:00pm 7.6 -1.7 4.9 83 1.2 WSW 43 56 23 30 1001.9 1001.9 4.2
25/01:34pm 7.4 -2.4 5.2 86 1.0 WSW 46 65 25 35 1001.5 1001.6 3.8
25/01:30pm 7.4 -2.8 5.2 86 1.0 WSW 48 63 26 34 1001.5 1001.6 3.6
25/01:13pm 7.7 -1.5 5.5 86 1.0 WSW 43 61 23 33 1001.0 1001.1 3.6
25/01:00pm 7.5 -1.6 6.0 90 0.7 WSW 43 54 23 29 1000.9 1001.0 3.6
25/12:39pm 7.6 -1.5 5.7 88 0.9 WSW 43 63 23 34 1000.5 1000.6 2.6
25/12:30pm 8.2 -0.8 6.5 89 0.8 WSW 43 57 23 31 1000.5 1000.6 2.4
25/12:15pm 8.1 0.2 6.4 89 0.8 WSW 37 57 20 31 1000.3 1000.4 2.2
25/12:00pm 7.5 -1.7 5.6 88 0.9 WSW 43 54 23 29 1000.2 1000.3 2.2
25/11:46am 8.2 0.3 6.3 88 0.9 WSW 37 56 20 30 999.9 1000.0 1.8
25/11:30am 8.3 0.5 6.6 89 0.8 WSW 37 52 20 28 999.7 999.8 1.8
25/11:00am 7.8 -2.1 6.4 91 0.6 WSW 48 63 26 34 999.2 999.3 1.8
25/10:30am 7.8 -3.6 6.6 92 0.6 WSW 56 69 30 37 998.7 998.8 1.4
25/10:00am 7.9 -3.7 6.7 92 0.6 WSW 57 76 31 41 997.9 998.0 1.0
25/09:30am 8.1 -3.4 6.9 92 0.6 WSW 57 78 31 42 997.2 997.3 0.6
25/09:28am 8.1 -3.3 6.9 92 0.6 WSW 56 78 30 42 997.2 997.3 0.6
25/09:00am 8.0 -4.0 6.5 90 0.7 WSW 59 72 32 39 996.7 996.8 3.2
25/08:32am 8.6 -3.2 5.9 83 1.2 W 57 76 31 41 995.9 995.9 2.8
25/08:30am 8.8 -3.3 6.1 83 1.2 W 59 76 32 41 995.9 995.9 2.8
25/08:00am 8.3 -2.0 6.4 88 0.9 W 50 76 27 41 995.3 995.3 2.8
25/07:30am 8.4 -2.8 6.0 85 1.1 W 54 72 29 39 994.8 994.8 2.8
25/07:16am 8.1 -3.7 5.7 85 1.1 W 57 76 31 41 994.5 994.5 2.8
25/07:00am 7.8 -4.1 5.1 83 1.2 W 57 69 31 37 994.3 994.3 2.8
25/06:30am 8.0 -3.0 4.8 80 1.4 W 52 70 28 38 993.8 993.8 2.8
25/06:10am 7.9 -2.6 3.9 76 1.7 W 48 69 26 37 993.5 993.5 2.8
25/06:00am 8.1 -2.0 3.9 75 1.8 W 46 61 25 33 993.3 993.3 2.8
25/05:30am 8.0 -1.3 3.1 71 2.1 W 41 56 22 30 993.2 993.2 2.8
25/05:00am 7.5 -1.5 2.2 69 2.2 W 39 57 21 31 993.0 993.0 2.8
25/04:59am 7.5 -1.5 2.4 70 2.1 W 39 57 21 31 993.0 993.0 2.8
25/04:30am 7.5 -1.5 2.6 71 2.0 W 39 50 21 27 992.7 992.7 2.8
25/04:00am 7.8 -0.9 1.9 66 2.5 W 37 48 20 26 992.6 992.6 2.8
25/03:30am 7.5 -2.4 2.8 72 2.0 W 44 59 24 32 992.3 992.3 2.8
25/03:00am 7.8 -2.9 2.7 70 2.2 W 48 59 26 32 991.7 991.7 2.8
25/02:44am 7.8 -2.6 2.1 67 2.4 W 46 65 25 35 991.6 991.6 2.8
25/02:30am 7.5 -2.1 3.4 75 1.7 W 43 57 23 31 991.5 991.5 2.8
25/02:00am 7.4 -2.3 3.8 78 1.6 W 44 57 24 31 991.4 991.4 2.8
25/01:36am 7.6 -1.0 4.4 80 1.4 W 39 57 21 31 991.3 991.3 2.8
25/01:30am 7.6 -1.2 3.8 77 1.6 W 39 48 21 26 991.3 991.3 2.8
25/01:00am 8.0 -0.7 4.2 77 1.7 W 39 48 21 26 991.0 991.0 2.8
25/12:46am 7.9 -0.8 4.1 77 1.7 W 39 57 21 31 991.0 991.0 2.8
25/12:30am 7.6 -1.1 4.0 78 1.6 W 39 54 21 29 990.7 990.7 2.8
25/12:00am 7.8 -0.7 5.1 83 1.2 W 39 56 21 30 990.7 990.7 2.8
 
Date/Time
EST
Temp
°C
App
Temp
°C
Dew
Point
°C
Rel
Hum
%
Delta-T
°C
Wind Press
QNH
hPa
Press
MSL
hPa
Rain since
9am
mm
Dir  Spd
km/h
Gust
km/h
Spd
kts
Gust
kts
24/11:55pm 8.0 -0.2 4.9 81 1.4 W 37 56 20 30 990.6 990.6 2.8
24/11:30pm 7.7 -0.1 4.8 82 1.3 W 35 46 19 25 990.5 990.5 2.8
24/11:00pm 8.2 0.9 5.5 83 1.2 WSW 33 41 18 22 990.5 990.5 2.8
24/10:30pm 7.9 -0.2 5.2 83 1.2 WSW 37 50 20 27 990.0 990.0 2.8
24/10:00pm 8.0 -0.8 5.6 85 1.1 WSW 41 50 22 27 989.9 989.9 2.8
24/09:30pm 8.2 -0.8 6.5 89 0.8 WSW 43 54 23 29 989.5 989.5 2.8
24/09:00pm 8.5 1.7 7.1 91 0.7 WSW 32 41 17 22 989.1 989.1 2.8
24/08:30pm 8.7 2.0 7.5 92 0.6 WSW 32 41 17 22 988.7 988.7 2.4
24/08:00pm 9.1 4.8 7.7 91 0.7 WSW 20 33 11 18 988.5 988.5 1.4
24/07:30pm 9.5 4.5 8.1 91 0.7 WSW 24 30 13 16 988.1 988.1 1.4
24/07:00pm 9.9 7.0 8.2 89 0.8 SW 13 19 7 10 987.8 987.8 1.4
24/06:30pm 10.1 7.3 8.4 89 0.8 WNW 13 15 7 8 987.4 987.4 1.2
24/06:00pm 10.4 6.8 8.5 88 0.9 WSW 17 20 9 11 987.1 987.1 0.8
24/05:30pm 11.2 8.2 7.9 80 1.6 W 13 17 7 9 986.8 986.8 0.4
24/05:00pm 11.8 8.0 7.7 76 2.0 WSW 17 26 9 14 986.4 986.4 0.4
24/04:30pm 13.0 10.4 7.9 71 2.5 NW 11 17 6 9 986.0 986.0 0.4
24/04:00pm 14.3 10.9 7.8 65 3.3 NW 15 20 8 11 985.8 985.8 0.4
24/03:30pm 13.9 10.9 7.7 66 3.1 NW 13 19 7 10 985.6 985.6 0.4
24/03:00pm 13.2 9.7 7.4 68 2.9 NW 15 22 8 12 985.4 985.4 0.4
24/02:30pm 13.8 9.9 7.3 65 3.2 WNW 17 22 9 12 985.4 985.4 0.4
24/02:00pm 13.1 6.7 6.9 66 3.0 WNW 30 39 16 21 985.4 985.4 0.4
24/01:30pm 13.0 7.7 6.6 65 3.1 WNW 24 35 13 19 985.7 985.7 0.4
24/01:00pm 12.6 6.4 6.2 65 3.1 WNW 28 43 15 23 985.6 985.6 0.4
24/12:30pm 12.2 5.3 6.5 68 2.7 WNW 32 43 17 23 985.7 985.7 0.4
24/12:00pm 11.6 6.6 8.1 79 1.7 WNW 24 39 13 21 985.8 985.8 0.4
24/11:30am 12.0 8.7 8.1 77 1.9 WNW 15 20 8 11 985.9 985.9 0.4
24/11:00am 12.6 9.7 8.1 74 2.3 NNW 13 19 7 10 986.0 986.0 0.0
24/10:30am 12.2 8.9 8.1 76 2.0 NW 15 20 8 11 986.0 986.0 0.0
24/10:00am 12.0 6.5 7.5 74 2.2 NW 26 33 14 18 986.0 986.0 0.0
24/09:30am 13.6 9.2 7.6 67 3.0 NW 20 32 11 17 985.9 985.9 0.0
24/09:00am 12.3 7.7 6.4 67 2.8 NW 20 30 11 16 986.1 986.1 4.0
24/08:30am 12.1 7.0 5.9 66 2.9 NW 22 30 12 16 986.2 986.2 4.0
24/08:00am 11.2 7.1 6.1 71 2.4 NW 17 22 9 12 986.1 986.1 4.0
24/07:30am 10.5 7.9 5.9 73 2.1 NNW 9 13 5 7 986.0 986.0 4.0
24/07:00am 10.4 5.3 5.8 73 2.2 WNW 22 30 12 16 986.0 986.0 4.0
24/06:30am 10.3 2.0 6.1 75 2.0 WNW 39 52 21 28 985.6 985.6 4.0
24/06:00am 10.2 3.5 5.8 74 2.1 WNW 30 44 16 24 985.6 985.6 4.0
24/05:30am 10.0 1.6 5.4 73 2.1 WNW 39 54 21 29 985.4 985.4 4.0
24/05:17am 9.8 1.4 5.8 76 1.8 WNW 39 57 21 31 985.3 985.3 4.0
24/05:00am 9.8 1.4 5.8 76 1.9 NW 39 48 21 26 985.0 985.0 4.0
24/04:45am 9.6 2.4 5.8 77 1.7 NW 33 50 18 27 985.0 985.0 4.0
24/04:30am 9.4 4.3 6.1 80 1.5 WNW 22 30 12 16 985.1 985.1 4.0
24/04:00am 9.5 3.5 7.1 85 1.2 WSW 28 39 15 21 985.0 985.0 4.0
24/03:30am 9.3 1.0 7.6 89 0.8 WSW 41 52 22 28 984.0 984.1 4.0
24/03:00am 9.8 0.6 8.1 89 0.8 WSW 46 63 25 34 983.2 983.3 3.8
24/02:39am 10.8 5.5 8.6 86 1.1 W 26 56 14 30 983.3 983.4 3.6
24/02:30am 11.0 6.4 8.2 83 1.4 NW 22 30 12 16 983.1 983.2 3.4
24/02:00am 11.7 6.9 7.4 75 2.1 NNW 22 30 12 16 982.7 982.8 3.4
24/01:30am 11.8 8.0 7.5 75 2.1 NNW 17 24 9 13 982.8 982.9 3.4
24/01:00am 11.8 8.4 7.5 75 2.1 NNW 15 22 8 12 983.0 983.1 3.4
24/12:30am 11.8 9.2 7.7 76 2.0 NNW 11 17 6 9 983.6 983.7 3.4
24/12:00am 12.2 6.7 7.5 73 2.3 NW 26 33 14 18 983.8 983.9 3.4
 
Date/Time
EST
Temp
°C
App
Temp
°C
Dew
Point
°C
Rel
Hum
%
Delta-T
°C
Wind Press
QNH
hPa
Press
MSL
hPa
Rain since
9am
mm
Dir  Spd
km/h
Gust
km/h
Spd
kts
Gust
kts
23/11:30pm 11.6 6.6 8.1 79 1.7 NNW 24 28 13 15 984.0 984.1 3.4
23/11:00pm 12.0 7.8 8.3 78 1.9 NNW 20 26 11 14 985.0 985.0 3.4
23/10:30pm 11.9 8.4 8.6 80 1.6 NNW 17 22 9 12 985.5 985.5 3.4
23/10:00pm 11.9 8.0 9.3 84 1.3 NNW 20 30 11 16 986.0 986.0 3.4
23/09:30pm 12.0 8.4 9.9 87 1.1 NNW 19 24 10 13 986.0 986.0 3.4
23/09:00pm 12.2 9.0 9.8 85 1.2 N 17 24 9 13 985.1 985.1 3.4
23/08:30pm 12.6 8.0 9.6 82 1.5 NNW 24 35 13 19 987.0 987.0 3.4
23/08:00pm 12.5 9.9 10.6 88 1.0 N 15 24 8 13 986.9 986.9 3.4
23/07:30pm 13.0 10.5 10.9 87 1.1 N 15 22 8 12 987.1 987.1 2.4
23/07:00pm 14.0 11.9 11.0 82 1.6 NNW 13 24 7 13 987.2 987.2 0.6
23/06:30pm 14.7 12.7 10.1 74 2.4 N 11 15 6 8 986.7 986.7 0.0
23/06:00pm 15.3 12.9 10.1 71 2.8 N 13 19 7 10 986.4 986.4 0.0
23/05:30pm 14.8 12.0 10.0 73 2.5 N 15 24 8 13 986.7 986.7 0.0
23/05:00pm 14.6 12.2 10.2 75 2.3 N 13 20 7 11 987.4 987.4 0.0
23/04:30pm 14.9 12.6 10.3 74 2.4 N 13 19 7 10 987.3 987.3 0.0
23/04:00pm 15.0 12.7 10.4 74 2.5 N 13 19 7 10 987.2 987.2 0.0
23/03:30pm 15.1 12.0 10.3 73 2.5 N 17 22 9 12 988.3 988.3 0.0
23/03:00pm 15.2 12.1 10.4 73 2.6 N 17 24 9 13 989.0 989.0 0.0
23/02:30pm 16.0 13.8 10.7 71 2.8 NNE 13 19 7 10 989.5 989.5 0.0
23/02:00pm 16.8 15.1 11.1 69 3.1 ENE 11 17 6 9 990.2 990.2 0.0
23/01:30pm 16.2 15.3 11.2 72 2.7 N 7 9 4 5 991.0 991.0 0.0
23/01:00pm 15.3 13.7 10.3 72 2.7 ENE 9 15 5 8 991.7 991.7 0.0
23/12:30pm 16.2 14.4 10.9 71 2.8 NE 11 17 6 9 992.2 992.2 0.0
23/12:00pm 16.2 14.0 10.9 71 2.9 NE 13 17 7 9 992.7 992.7 0.0
23/11:30am 16.1 14.2 11.9 76 2.3 N 13 20 7 11 993.3 993.3 0.0
23/11:00am 14.7 11.7 10.7 77 2.1 N 17 24 9 13 994.0 994.0 0.0
23/10:30am 13.3 9.8 10.3 82 1.6 N 19 24 10 13 994.4 994.4 0.0
23/10:00am 11.8 7.9 9.5 86 1.2 N 20 28 11 15 995.1 995.1 0.0
23/09:30am 12.3 8.7 9.9 85 1.2 N 19 24 10 13 995.3 995.3 0.0
23/09:00am 12.6 8.5 10.1 85 1.3 N 22 28 12 15 995.5 995.5 4.8
23/08:30am 11.6 7.7 9.3 86 1.2 N 20 26 11 14 995.5 995.5 4.8
23/08:00am 11.0 7.0 9.1 88 1.0 N 20 26 11 14 995.8 995.8 4.8
23/07:30am 10.9 6.9 9.2 89 0.8 N 20 28 11 15 995.9 995.9 4.8
23/07:00am 10.7 6.3 9.1 90 0.8 NNE 22 28 12 15 996.4 996.5 4.8
23/06:30am 10.9 7.2 9.3 90 0.8 N 19 24 10 13 996.5 996.6 4.8
23/06:08am 10.9 7.0 9.3 90 0.8 NNE 20 30 11 16 995.5 995.5 4.2
23/06:00am 11.0 7.1 9.3 89 0.9 N 20 28 11 15 997.6 997.7 3.0
23/05:30am 10.8 7.0 9.2 90 0.8 NNE 19 24 10 13 996.4 996.5 3.0
23/05:00am 10.7 7.3 9.3 91 0.7 N 17 22 9 12 997.3 997.4 2.4
23/04:30am 10.6 7.9 9.0 90 0.8 N 13 19 7 10 997.6 997.7 2.4
23/04:00am 10.4 7.0 9.0 91 0.7 N 17 20 9 11 998.3 998.4 2.4
23/03:30am 10.4 7.0 9.0 91 0.7 NNE 17 24 9 13 998.1 998.2 1.8
23/03:00am 10.6 7.5 9.0 90 0.8 N 15 24 8 13 999.6 999.7 1.2
23/02:30am 10.1 6.2 8.5 90 0.8 NNE 19 28 10 15 998.5 998.6 0.8
23/02:26am 10.1 6.0 8.5 90 0.8 N 20 28 11 15 998.5 998.6 0.4
23/02:00am 10.0 5.4 8.3 89 0.8 N 22 28 12 15 1000.5 1000.6 0.2
23/01:30am 10.3 6.1 8.2 87 1.0 NNE 20 30 11 16 1000.1 1000.2 0.0
23/01:00am 10.2 6.5 7.8 85 1.2 N 17 24 9 13 1000.8 1000.9 0.0
23/12:30am 10.7 7.4 7.9 83 1.4 N 15 22 8 12 1001.7 1001.8 0.0
23/12:00am 10.0 6.1 6.9 81 1.5 N 17 24 9 13 1001.2 1001.3 0.0
 
Date/Time
EST
Temp
°C
App
Temp
°C
Dew
Point
°C
Rel
Hum
%
Delta-T
°C
Wind Press
QNH
hPa
Press
MSL
hPa
Rain since
9am
mm
Dir  Spd
km/h
Gust
km/h
Spd
kts
Gust
kts
22/11:30pm 10.0 6.3 8.1 88 0.9 NNE 17 24 9 13 1001.2 1001.3 0.0
22/11:00pm 9.9 6.1 7.7 86 1.1 N 17 22 9 12 1002.1 1002.1 0.0
22/10:30pm 9.6 6.2 7.5 87 1.0 N 15 19 8 10 1002.6 1002.6 0.0
22/10:00pm 9.4 6.3 7.3 87 1.0 N 13 15 7 8 1003.2 1003.2 0.0
22/09:30pm 8.8 6.7 6.8 87 0.9 NNE 7 11 4 6 1003.2 1003.2 0.0
22/09:00pm 9.9 7.7 8.0 88 0.9 WNW 9 15 5 8 1004.1 1004.1 0.0
22/08:30pm 10.0 7.1 8.3 89 0.8 WNW 13 15 7 8 1004.5 1004.5 0.0
22/08:00pm 10.1 8.0 8.2 88 0.9 W 9 13 5 7 1004.5 1004.5 0.0
22/07:30pm 10.4 7.5 8.2 86 1.1 WNW 13 17 7 9 1004.9 1004.9 0.0
22/07:00pm 11.0 7.5 8.6 85 1.2 NW 17 22 9 12 1004.9 1004.9 0.0
22/06:30pm 10.7 8.6 6.5 75 2.0 NE 7 9 4 5 1004.6 1004.6 0.0

Latest Capital City Observations: Canberra | Sydney | Melbourne | Brisbane | Adelaide | Perth | Hobart | Darwin

Other Formats:

Comma delimited format used in spreadsheet applications
http://www.bom.gov.au/fwo/IDT60901/IDT60901.95967.axf

JavaScript Object Notation format (JSON) in row-major order
http://www.bom.gov.au/fwo/IDT60901/IDT60901.95967.json